createdAt,value
2023-04-25T00:00:37.089Z,9.97
2023-04-25T00:03:06.849Z,9.91
2023-04-25T00:05:38.397Z,9.84
2023-04-25T00:08:12.861Z,9.87
2023-04-25T00:10:40.309Z,9.85
2023-04-25T00:13:09.461Z,9.80
2023-04-25T00:15:37.369Z,9.81
2023-04-25T00:18:04.795Z,9.79
2023-04-25T00:20:32.163Z,9.80
2023-04-25T00:22:59.607Z,9.69
2023-04-25T00:25:32.743Z,9.65
2023-04-25T00:28:01.136Z,9.60
2023-04-25T00:30:28.609Z,9.47
2023-04-25T00:32:57.184Z,9.48
2023-04-25T00:35:24.648Z,9.46
2023-04-25T00:37:52.008Z,9.38
2023-04-25T00:40:19.479Z,9.39
2023-04-25T00:42:47.900Z,9.34
2023-04-25T00:45:16.982Z,9.33
2023-04-25T00:47:44.920Z,9.37
2023-04-25T00:50:14.336Z,9.34
2023-04-25T00:52:44.813Z,9.27
2023-04-25T00:55:12.652Z,9.29
2023-04-25T00:57:40.502Z,9.31
2023-04-25T01:02:51.342Z,9.18
2023-04-25T01:05:20.270Z,9.19
2023-04-25T01:07:48.562Z,9.09
2023-04-25T01:10:16.458Z,9.23
2023-04-25T01:12:43.713Z,9.11
2023-04-25T01:15:11.414Z,9.12
2023-04-25T01:17:45.928Z,9.23
2023-04-25T01:20:15.293Z,9.22
2023-04-25T01:22:43.292Z,9.05
2023-04-25T01:25:11.719Z,9.16
2023-04-25T01:27:39.528Z,9.20
2023-04-25T01:30:08.885Z,9.18
2023-04-25T01:32:39.732Z,9.04
2023-04-25T01:35:12.650Z,9.05
2023-04-25T01:37:44.584Z,9.04
2023-04-25T01:40:13.750Z,8.99
2023-04-25T01:42:43.594Z,9.03
2023-04-25T01:45:13.408Z,9.05
2023-04-25T01:47:44.988Z,9.06
2023-04-25T01:50:14.604Z,9.03
2023-04-25T01:52:44.114Z,8.90
2023-04-25T01:55:13.479Z,8.96
2023-04-25T01:57:41.139Z,8.95
2023-04-25T02:00:10.254Z,8.92
2023-04-25T02:02:37.803Z,8.91
2023-04-25T02:05:05.945Z,8.91
2023-04-25T02:07:34.050Z,8.94
2023-04-25T02:10:01.347Z,8.92
2023-04-25T02:12:30.096Z,8.90
2023-04-25T02:14:57.791Z,8.89
2023-04-25T02:17:25.238Z,8.89
2023-04-25T02:19:52.693Z,8.83
2023-04-25T02:22:20.168Z,8.84
2023-04-25T02:24:48.046Z,8.83
2023-04-25T02:27:16.714Z,8.76
2023-04-25T02:29:50.840Z,8.85
2023-04-25T02:32:18.268Z,8.83
2023-04-25T02:34:45.890Z,8.90
2023-04-25T02:37:14.715Z,8.86
2023-04-25T02:39:44.215Z,8.82
2023-04-25T02:42:12.481Z,8.80
2023-04-25T02:44:39.910Z,8.72
2023-04-25T02:47:08.494Z,8.64
2023-04-25T02:49:35.970Z,8.85
2023-04-25T02:52:04.443Z,8.85
2023-04-25T02:54:32.166Z,8.84
2023-04-25T02:57:00.229Z,8.73
2023-04-25T02:59:27.849Z,8.72
2023-04-25T03:01:54.838Z,8.52
2023-04-25T03:04:25.081Z,8.65
2023-04-25T03:06:52.660Z,8.60
2023-04-25T03:09:20.813Z,8.62
2023-04-25T03:11:50.141Z,8.58
2023-04-25T03:14:17.583Z,8.61
2023-04-25T03:16:45.102Z,8.69
2023-04-25T03:19:12.661Z,8.71
2023-04-25T03:21:40.100Z,8.61
2023-04-25T03:24:07.506Z,8.55
2023-04-25T03:26:34.960Z,8.54
2023-04-25T03:29:02.350Z,8.59
2023-04-25T03:31:29.816Z,8.49
2023-04-25T03:33:58.273Z,8.44
2023-04-25T03:36:26.039Z,8.42
2023-04-25T03:38:59.375Z,8.39
2023-04-25T03:41:27.066Z,8.37
2023-04-25T03:43:54.242Z,8.37
2023-04-25T03:46:21.793Z,8.34
2023-04-25T03:48:49.382Z,8.29
2023-04-25T03:51:17.017Z,8.30
2023-04-25T03:53:51.263Z,8.29
2023-04-25T03:56:21.490Z,8.26
2023-04-25T03:58:50.926Z,8.30
2023-04-25T04:01:18.292Z,8.28
2023-04-25T04:03:46.197Z,8.23
2023-04-25T04:06:14.454Z,8.21
2023-04-25T04:08:49.558Z,8.23
2023-04-25T04:11:17.047Z,8.23
2023-04-25T04:13:44.572Z,8.19
2023-04-25T04:16:12.921Z,8.14
2023-04-25T04:18:47.196Z,8.21
2023-04-25T04:21:14.351Z,8.20
2023-04-25T04:23:42.155Z,8.20
2023-04-25T04:26:11.381Z,8.25
2023-04-25T04:28:39.254Z,8.23
2023-04-25T04:31:07.201Z,8.30
2023-04-25T04:33:34.671Z,8.35
2023-04-25T04:36:03.942Z,8.39
2023-04-25T04:38:32.239Z,8.41
2023-04-25T04:40:59.670Z,8.44
2023-04-25T04:43:26.716Z,8.40
2023-04-25T04:45:57.373Z,8.36
2023-04-25T04:48:33.902Z,8.35
2023-04-25T04:51:01.745Z,8.40
2023-04-25T04:53:29.337Z,8.42
2023-04-25T04:56:02.902Z,8.41
2023-04-25T04:58:32.170Z,8.33
2023-04-25T05:00:59.356Z,8.11
2023-04-25T05:03:28.580Z,8.04
2023-04-25T05:05:57.341Z,7.95
2023-04-25T05:08:24.731Z,7.97
2023-04-25T05:10:52.458Z,8.00
2023-04-25T05:13:20.719Z,7.93
2023-04-25T05:15:48.214Z,7.97
2023-04-25T05:18:15.842Z,8.12
2023-04-25T05:20:43.531Z,8.08
2023-04-25T05:23:12.162Z,8.12
2023-04-25T05:25:41.650Z,8.11
2023-04-25T05:28:09.500Z,8.24
2023-04-25T05:30:37.694Z,8.32
2023-04-25T05:33:05.163Z,8.42
2023-04-25T05:35:33.690Z,8.67
2023-04-25T05:38:01.094Z,8.73
2023-04-25T05:40:29.494Z,8.95
2023-04-25T05:42:57.009Z,9.10
2023-04-25T05:45:26.514Z,9.16
2023-04-25T05:47:54.905Z,9.28
2023-04-25T05:50:23.412Z,9.29
2023-04-25T05:52:52.297Z,9.20
2023-04-25T05:55:19.816Z,9.33
2023-04-25T05:57:47.732Z,9.50
2023-04-25T06:00:17.192Z,9.48
2023-04-25T06:02:44.468Z,9.56
2023-04-25T06:05:13.009Z,9.56
2023-04-25T06:07:40.794Z,9.42
2023-04-25T06:10:10.794Z,9.57
2023-04-25T06:12:40.158Z,9.54
2023-04-25T06:15:20.196Z,9.60
2023-04-25T06:17:54.245Z,9.60
2023-04-25T06:20:24.432Z,9.66
2023-04-25T06:22:53.930Z,9.69
2023-04-25T06:25:22.376Z,9.64
2023-04-25T06:27:49.522Z,9.55
2023-04-25T06:30:19.558Z,9.59
2023-04-25T06:32:47.042Z,9.71
2023-04-25T06:35:16.449Z,9.65
2023-04-25T06:37:43.933Z,9.64
2023-04-25T06:40:12.644Z,9.56
2023-04-25T06:42:41.086Z,9.68
2023-04-25T06:45:08.882Z,9.61
2023-04-25T06:47:36.395Z,9.55
2023-04-25T06:50:04.074Z,9.59
2023-04-25T06:52:31.566Z,9.61
2023-04-25T06:54:58.662Z,9.66
2023-04-25T06:57:25.746Z,9.64
2023-04-25T06:59:53.186Z,9.68
2023-04-25T07:02:20.431Z,9.82
2023-04-25T07:04:49.912Z,10.02
2023-04-25T07:07:18.329Z,9.85
2023-04-25T07:09:56.727Z,9.91
2023-04-25T07:12:23.791Z,10.07
2023-04-25T07:14:51.277Z,10.09
2023-04-25T07:17:18.665Z,10.20
2023-04-25T07:19:46.443Z,10.22
2023-04-25T07:22:13.623Z,10.38
2023-04-25T07:24:49.994Z,10.26
2023-04-25T07:27:18.364Z,10.41
2023-04-25T07:29:46.842Z,10.44
2023-04-25T07:32:15.334Z,10.45
2023-04-25T07:34:54.891Z,10.48
2023-04-25T07:37:21.989Z,10.54
2023-04-25T07:39:50.353Z,10.65
2023-04-25T07:42:19.866Z,10.77
2023-04-25T07:44:47.189Z,10.81
2023-04-25T07:47:14.998Z,10.79
2023-04-25T07:49:42.388Z,11.02
2023-04-25T07:52:09.782Z,11.08
2023-04-25T07:54:38.192Z,11.14
2023-04-25T07:57:07.649Z,11.12
2023-04-25T07:59:36.197Z,11.06
2023-04-25T08:02:03.908Z,11.11
2023-04-25T08:04:31.152Z,11.08
2023-04-25T08:06:59.658Z,11.26
2023-04-25T08:09:27.029Z,11.41
2023-04-25T08:11:54.608Z,11.53
2023-04-25T08:14:23.921Z,11.67
2023-04-25T08:16:52.467Z,11.77
2023-04-25T08:19:19.885Z,11.89
2023-04-25T08:21:47.383Z,12.00
2023-04-25T08:24:14.733Z,12.18
2023-04-25T08:26:42.525Z,12.33
2023-04-25T08:29:09.723Z,12.22
2023-04-25T08:31:37.202Z,12.27
2023-04-25T08:34:04.696Z,11.82
2023-04-25T08:36:39.378Z,11.87
2023-04-25T08:39:07.251Z,12.04
2023-04-25T08:41:35.027Z,12.19
2023-04-25T08:44:05.123Z,12.44
2023-04-25T08:46:33.390Z,12.32
2023-04-25T08:49:03.569Z,11.98
2023-04-25T08:51:33.869Z,11.93
2023-04-25T08:56:46.814Z,12.26
2023-04-25T08:59:15.607Z,12.13
2023-04-25T09:01:42.704Z,11.99
2023-04-25T09:04:11.195Z,11.97
2023-04-25T09:06:38.520Z,12.09
2023-04-25T09:09:10.085Z,12.16
2023-04-25T09:11:38.198Z,11.88
2023-04-25T09:14:22.195Z,11.84
2023-04-25T09:17:02.457Z,12.02
2023-04-25T09:19:41.048Z,12.00
2023-04-25T09:22:09.636Z,12.22
2023-04-25T09:24:42.982Z,12.41
2023-04-25T09:27:24.168Z,12.55
2023-04-25T09:30:02.933Z,12.58
2023-04-25T09:32:31.343Z,12.49
2023-04-25T09:35:01.379Z,12.41
2023-04-25T09:37:31.565Z,12.65
2023-04-25T09:40:01.782Z,12.54
2023-04-25T09:42:32.669Z,12.43
2023-04-25T09:45:05.247Z,12.66
2023-04-25T09:47:33.406Z,12.56
2023-04-25T09:50:00.806Z,12.53
2023-04-25T09:52:27.900Z,12.66
2023-04-25T09:54:56.317Z,12.65
2023-04-25T09:57:27.919Z,12.80
2023-04-25T09:59:57.350Z,12.70
2023-04-25T10:02:27.077Z,12.56
2023-04-25T10:04:57.578Z,12.72
2023-04-25T10:07:29.108Z,12.72
2023-04-25T10:10:05.038Z,13.04
2023-04-25T10:12:34.846Z,13.06
2023-04-25T10:15:04.672Z,13.28
2023-04-25T10:17:32.880Z,13.21
2023-04-25T10:20:04.221Z,13.33
2023-04-25T10:22:35.595Z,13.44
2023-04-25T10:25:05.468Z,13.34
2023-04-25T10:27:35.694Z,13.29
2023-04-25T10:30:07.674Z,13.74
2023-04-25T10:32:37.311Z,13.95
2023-04-25T10:35:25.754Z,13.97
2023-04-25T10:38:25.644Z,13.72
2023-04-25T10:41:09.565Z,14.48
2023-04-25T10:43:43.836Z,15.03
2023-04-25T10:46:28.566Z,15.20
2023-04-25T10:48:58.659Z,14.98
2023-04-25T10:51:51.002Z,14.37
2023-04-25T10:54:21.458Z,13.84
2023-04-25T10:56:50.887Z,13.88
2023-04-25T10:59:20.143Z,14.01
2023-04-25T11:01:50.368Z,14.10
2023-04-25T11:04:26.814Z,13.83
2023-04-25T11:07:11.926Z,13.73
2023-04-25T11:09:42.685Z,13.55
2023-04-25T11:12:13.102Z,13.48
2023-04-25T11:17:19.254Z,13.60
2023-04-25T11:19:50.626Z,13.72
2023-04-25T11:22:18.774Z,13.88
2023-04-25T11:24:46.913Z,13.85
2023-04-25T11:27:16.396Z,14.01
2023-04-25T11:29:43.919Z,14.26
2023-04-25T11:32:19.783Z,14.57
2023-04-25T11:34:48.559Z,14.58
2023-04-25T11:37:22.381Z,14.34
2023-04-25T11:39:49.803Z,14.56
2023-04-25T11:42:17.380Z,14.82
2023-04-25T11:44:45.150Z,14.97
2023-04-25T11:47:13.266Z,15.19
2023-04-25T11:49:40.837Z,15.33
2023-04-25T11:52:10.392Z,15.00
2023-04-25T11:54:39.658Z,14.93
2023-04-25T11:57:07.733Z,14.87
2023-04-25T11:59:35.203Z,14.84
2023-04-25T12:02:03.210Z,14.02
2023-04-25T12:04:34.076Z,13.76
2023-04-25T12:07:03.055Z,13.67
2023-04-25T12:09:35.169Z,13.64
2023-04-25T12:12:07.085Z,13.78
2023-04-25T12:14:37.024Z,13.80
2023-04-25T12:17:09.457Z,13.83
2023-04-25T12:19:43.045Z,13.93
2023-04-25T12:22:24.394Z,13.94
2023-04-25T12:24:54.543Z,14.09
2023-04-25T12:27:22.465Z,14.59
2023-04-25T12:29:54.488Z,14.88
2023-04-25T12:32:23.106Z,14.31
2023-04-25T12:34:50.322Z,14.08
2023-04-25T12:37:17.745Z,13.96
2023-04-25T12:39:45.182Z,13.83
2023-04-25T12:42:15.420Z,13.90
2023-04-25T12:44:43.707Z,14.17
2023-04-25T12:47:11.578Z,14.43
2023-04-25T12:49:41.262Z,15.29
2023-04-25T12:52:08.759Z,15.87
2023-04-25T12:54:36.533Z,16.16
2023-04-25T12:57:04.243Z,16.23
2023-04-25T12:59:32.640Z,15.86
2023-04-25T13:02:00.724Z,14.89
2023-04-25T13:04:28.218Z,14.45
2023-04-25T13:06:56.518Z,14.11
2023-04-25T13:09:23.898Z,13.80
2023-04-25T13:11:51.810Z,14.15
2023-04-25T13:14:19.521Z,15.03
2023-04-25T13:16:47.291Z,14.82
2023-04-25T13:19:15.968Z,15.13
2023-04-25T13:21:43.474Z,15.21
2023-04-25T13:24:11.080Z,14.94
2023-04-25T13:26:38.512Z,14.77
2023-04-25T13:29:05.959Z,14.64
2023-04-25T13:31:33.409Z,14.67
2023-04-25T13:34:01.912Z,15.01
2023-04-25T13:36:29.409Z,14.87
2023-04-25T13:38:56.714Z,14.79
2023-04-25T13:41:24.168Z,14.69
2023-04-25T13:43:51.890Z,14.81
2023-04-25T13:48:52.806Z,15.52
2023-04-25T13:51:23.226Z,15.61
2023-04-25T13:53:51.262Z,15.41
2023-04-25T13:56:20.904Z,15.20
2023-04-25T13:58:49.088Z,14.81
2023-04-25T14:01:16.690Z,14.40
2023-04-25T14:03:44.311Z,14.52
2023-04-25T14:06:12.449Z,14.74
2023-04-25T14:08:41.415Z,14.61
2023-04-25T14:11:08.505Z,14.30
2023-04-25T14:13:37.970Z,14.15
2023-04-25T14:16:06.524Z,14.05
2023-04-25T14:18:33.925Z,14.10
2023-04-25T14:21:02.592Z,14.24
2023-04-25T14:23:29.874Z,13.95
2023-04-25T14:25:57.602Z,14.15
2023-04-25T14:28:24.717Z,14.16
2023-04-25T14:30:52.777Z,14.27
2023-04-25T14:33:20.185Z,14.27
2023-04-25T14:35:47.770Z,14.35
2023-04-25T14:38:15.826Z,14.98
2023-04-25T14:40:43.900Z,15.79
2023-04-25T14:43:11.038Z,16.07
2023-04-25T14:45:38.597Z,16.31
2023-04-25T14:48:06.178Z,16.29
2023-04-25T14:50:33.790Z,16.09
2023-04-25T14:53:02.031Z,15.42
2023-04-25T14:55:29.591Z,14.84
2023-04-25T14:57:57.671Z,14.22
2023-04-25T15:00:26.462Z,14.40
2023-04-25T15:02:53.779Z,14.27
2023-04-25T15:05:21.642Z,14.18
2023-04-25T15:07:49.233Z,14.34
2023-04-25T15:10:19.070Z,14.62
2023-04-25T15:12:47.849Z,14.70
2023-04-25T15:15:22.668Z,14.82
2023-04-25T15:17:57.167Z,14.72
2023-04-25T15:20:26.371Z,14.66
2023-04-25T15:22:53.668Z,14.58
2023-04-25T15:25:21.426Z,14.28
2023-04-25T15:27:49.813Z,14.27
2023-04-25T15:30:18.192Z,14.33
2023-04-25T15:32:47.907Z,14.16
2023-04-25T15:35:16.565Z,14.31
2023-04-25T15:37:44.402Z,14.38
2023-04-25T15:40:14.949Z,14.28
2023-04-25T15:42:48.849Z,14.03
2023-04-25T15:45:18.100Z,14.02
2023-04-25T15:47:45.984Z,13.93
2023-04-25T15:50:15.403Z,13.96
2023-04-25T15:52:58.332Z,13.83
2023-04-25T15:55:27.115Z,13.84
2023-04-25T15:57:54.496Z,14.14
2023-04-25T16:00:23.118Z,14.31
2023-04-25T16:02:50.419Z,14.28
2023-04-25T16:05:18.745Z,14.64
2023-04-25T16:07:48.189Z,14.83
2023-04-25T16:10:20.197Z,14.89
2023-04-25T16:12:49.075Z,14.71
2023-04-25T16:15:18.822Z,14.46
2023-04-25T16:17:46.121Z,14.02
2023-04-25T16:20:13.700Z,13.78
2023-04-25T16:22:44.623Z,13.57
2023-04-25T16:25:14.716Z,13.18
2023-04-25T16:27:41.908Z,12.98
2023-04-25T16:30:11.336Z,12.90
2023-04-25T16:32:40.281Z,12.92
2023-04-25T16:35:09.938Z,12.80
2023-04-25T16:37:37.418Z,12.95
2023-04-25T16:40:05.180Z,12.80
2023-04-25T16:42:32.317Z,12.46
2023-04-25T16:44:59.661Z,12.41
2023-04-25T16:47:27.193Z,12.43
2023-04-25T16:49:54.890Z,12.34
2023-04-25T16:52:23.984Z,12.26
2023-04-25T16:54:51.656Z,12.13
2023-04-25T16:57:19.027Z,12.16
2023-04-25T16:59:46.994Z,12.15
2023-04-25T17:02:15.348Z,12.05
2023-04-25T17:04:43.445Z,11.96
2023-04-25T17:07:11.554Z,11.78
2023-04-25T17:09:39.928Z,11.75
2023-04-25T17:12:08.401Z,11.76
2023-04-25T17:14:37.564Z,11.68
2023-04-25T17:17:06.070Z,11.50
2023-04-25T17:19:34.744Z,11.43
2023-04-25T17:22:02.550Z,11.48
2023-04-25T17:24:30.598Z,11.53
2023-04-25T17:26:58.874Z,11.58
2023-04-25T17:29:29.649Z,11.51
2023-04-25T17:31:58.468Z,11.49
2023-04-25T17:34:25.998Z,11.48
2023-04-25T17:36:55.039Z,11.46
2023-04-25T17:39:22.297Z,11.42
2023-04-25T17:41:51.084Z,11.33
2023-04-25T17:44:18.708Z,11.17
2023-04-25T17:46:46.786Z,11.01
2023-04-25T17:49:14.664Z,10.79
2023-04-25T17:51:42.209Z,10.64
2023-04-25T17:54:09.869Z,10.48
2023-04-25T17:56:45.905Z,10.47
2023-04-25T17:59:13.159Z,10.44
2023-04-25T18:01:47.584Z,10.39
2023-04-25T18:04:16.391Z,10.39
2023-04-25T18:06:44.555Z,10.35
2023-04-25T18:09:17.980Z,10.29
2023-04-25T18:11:46.361Z,10.26
2023-04-25T18:14:17.366Z,10.27
2023-04-25T18:16:45.809Z,10.07
2023-04-25T18:19:16.544Z,10.03
2023-04-25T18:21:49.024Z,9.90
2023-04-25T18:24:27.554Z,9.89
2023-04-25T18:26:56.817Z,9.87
2023-04-25T18:29:32.833Z,9.87
2023-04-25T18:32:01.680Z,9.74
2023-04-25T18:34:31.037Z,9.58
2023-04-25T18:36:59.170Z,9.33
2023-04-25T18:39:28.080Z,9.30
2023-04-25T18:42:06.456Z,9.37
2023-04-25T18:44:40.414Z,9.20
2023-04-25T18:47:10.693Z,9.19
2023-04-25T18:49:40.884Z,9.13
2023-04-25T18:52:11.279Z,9.15
2023-04-25T18:54:39.572Z,9.14
2023-04-25T18:57:08.926Z,9.07
2023-04-25T18:59:37.650Z,9.04
2023-04-25T19:02:05.836Z,8.99
2023-04-25T19:04:34.284Z,9.05
2023-04-25T19:07:02.676Z,9.06
2023-04-25T19:09:31.678Z,9.02
2023-04-25T19:12:08.501Z,8.94
2023-04-25T19:14:36.552Z,8.89
2023-04-25T19:17:05.064Z,9.04
2023-04-25T19:19:33.179Z,8.99
2023-04-25T19:22:01.433Z,9.03
2023-04-25T19:24:29.628Z,9.07
2023-04-25T19:27:03.675Z,9.10
2023-04-25T19:29:33.457Z,9.13
2023-04-25T19:32:04.005Z,9.17
2023-04-25T19:34:32.218Z,9.14
2023-04-25T19:37:05.234Z,9.06
2023-04-25T19:39:33.350Z,9.13
2023-04-25T19:42:04.534Z,9.15
2023-04-25T19:44:33.335Z,8.91
2023-04-25T19:47:01.072Z,9.03
2023-04-25T19:49:30.370Z,8.98
2023-04-25T19:51:59.003Z,8.84
2023-04-25T19:54:26.889Z,8.68
2023-04-25T19:56:55.297Z,8.80
2023-04-25T19:59:22.861Z,8.80
2023-04-25T20:01:50.542Z,8.84
2023-04-25T20:04:18.797Z,8.90
2023-04-25T20:06:47.107Z,8.90
2023-04-25T20:09:14.971Z,8.89
2023-04-25T20:11:43.129Z,8.84
2023-04-25T20:14:12.910Z,8.73
2023-04-25T20:16:41.286Z,8.68
2023-04-25T20:19:13.006Z,8.70
2023-04-25T20:21:42.814Z,8.59
2023-04-25T20:24:12.233Z,8.54
2023-04-25T20:26:40.318Z,8.45
2023-04-25T20:29:08.497Z,8.36
2023-04-25T20:31:37.114Z,8.44
2023-04-25T20:34:04.598Z,8.33
2023-04-25T20:36:33.377Z,8.43
2023-04-25T20:39:01.229Z,8.40
2023-04-25T20:41:31.056Z,8.27
2023-04-25T20:44:05.515Z,8.29
2023-04-25T20:46:35.440Z,8.29
2023-04-25T20:49:05.339Z,8.21
2023-04-25T20:51:33.140Z,8.14
2023-04-25T20:54:00.708Z,8.21
2023-04-25T20:56:27.855Z,8.21
2023-04-25T20:58:56.395Z,8.24
2023-04-25T21:01:25.220Z,8.22
2023-04-25T21:03:59.425Z,8.14
2023-04-25T21:06:27.944Z,8.10
2023-04-25T21:08:55.513Z,8.09
2023-04-25T21:11:23.761Z,8.08
2023-04-25T21:13:52.097Z,8.08
2023-04-25T21:16:19.429Z,8.08
2023-04-25T21:18:46.813Z,8.11
2023-04-25T21:21:14.367Z,8.10
2023-04-25T21:23:42.946Z,8.07
2023-04-25T21:26:10.322Z,8.04
2023-04-25T21:28:37.855Z,7.95
2023-04-25T21:31:05.345Z,7.98
2023-04-25T21:33:32.666Z,8.04
2023-04-25T21:36:00.181Z,7.94
2023-04-25T21:38:27.768Z,7.94
2023-04-25T21:40:56.057Z,7.89
2023-04-25T21:43:23.502Z,7.66
2023-04-25T21:46:14.864Z,7.83
2023-04-25T21:48:38.402Z,7.77
2023-04-25T21:51:06.074Z,7.70
2023-04-25T21:53:33.255Z,7.69
2023-04-25T21:56:00.808Z,7.74
2023-04-25T21:58:28.241Z,7.74
2023-04-25T22:00:55.824Z,7.66
2023-04-25T22:03:23.033Z,7.56
2023-04-25T22:05:52.638Z,7.46
2023-04-25T22:08:20.091Z,7.59
2023-04-25T22:10:47.592Z,7.48
2023-04-25T22:13:15.546Z,7.41
2023-04-25T22:15:48.975Z,7.41
2023-04-25T22:18:16.622Z,7.37
2023-04-25T22:20:44.522Z,7.27
2023-04-25T22:23:12.359Z,7.14
2023-04-25T22:25:40.684Z,6.94
2023-04-25T22:28:20.733Z,6.83
2023-04-25T22:30:48.165Z,6.84
2023-04-25T22:33:15.706Z,6.62
2023-04-25T22:35:44.141Z,6.65
2023-04-25T22:38:11.705Z,6.46
2023-04-25T22:40:40.162Z,6.28
2023-04-25T22:43:08.533Z,6.13
2023-04-25T22:45:36.155Z,6.17
2023-04-25T22:48:03.833Z,5.88
2023-04-25T22:50:34.005Z,5.68
2023-04-25T22:53:01.991Z,5.67
2023-04-25T22:55:29.499Z,5.58
2023-04-25T22:57:57.900Z,5.76
2023-04-25T23:00:27.941Z,5.72
2023-04-25T23:02:55.274Z,5.60
2023-04-25T23:05:24.975Z,5.53
2023-04-25T23:07:59.432Z,5.65
2023-04-25T23:10:28.848Z,5.77
2023-04-25T23:13:00.716Z,5.59
2023-04-25T23:15:31.141Z,5.70
2023-04-25T23:17:58.976Z,5.30
2023-04-25T23:20:26.980Z,5.14
2023-04-25T23:22:55.351Z,5.01
2023-04-25T23:25:22.623Z,4.84
2023-04-25T23:27:49.942Z,4.72
2023-04-25T23:30:17.256Z,4.76
2023-04-25T23:32:45.188Z,4.75
2023-04-25T23:35:13.694Z,5.06
2023-04-25T23:37:41.334Z,5.06
2023-04-25T23:40:13.050Z,5.14
2023-04-25T23:42:41.466Z,4.98
2023-04-25T23:45:09.665Z,4.98
2023-04-25T23:47:37.731Z,5.11
2023-04-25T23:50:06.376Z,4.83
2023-04-25T23:52:33.734Z,4.84
2023-04-25T23:55:01.372Z,4.89
2023-04-25T23:57:30.668Z,4.84
2023-04-25T23:59:58.315Z,4.79
